sensor_id;sensor_type;location;lat;lon;timestamp;P1;durP1;ratioP1;P2;durP2;ratioP2
57345;SDS011;43181;50.974;18.244;2023-08-06T00:00:39;1.00;;;0.70;;
57345;SDS011;43181;50.974;18.244;2023-08-06T00:03:05;0.40;;;0.40;;
57345;SDS011;43181;50.974;18.244;2023-08-06T00:05:31;0.60;;;0.60;;
57345;SDS011;43181;50.974;18.244;2023-08-06T00:07:57;2.30;;;0.50;;
57345;SDS011;43181;50.974;18.244;2023-08-06T00:10:22;1.00;;;1.00;;
57345;SDS011;43181;50.974;18.244;2023-08-06T00:12:48;0.90;;;0.60;;
57345;SDS011;43181;50.974;18.244;2023-08-06T00:15:14;0.50;;;0.50;;
57345;SDS011;43181;50.974;18.244;2023-08-06T00:17:39;0.40;;;0.40;;
57345;SDS011;43181;50.974;18.244;2023-08-06T00:20:05;0.60;;;0.60;;
57345;SDS011;43181;50.974;18.244;2023-08-06T00:22:32;0.80;;;0.60;;
57345;SDS011;43181;50.974;18.244;2023-08-06T00:24:58;0.70;;;0.60;;
57345;SDS011;43181;50.974;18.244;2023-08-06T00:27:24;0.60;;;0.40;;
57345;SDS011;43181;50.974;18.244;2023-08-06T00:29:50;0.40;;;0.40;;
57345;SDS011;43181;50.974;18.244;2023-08-06T00:32:17;2.10;;;0.60;;
57345;SDS011;43181;50.974;18.244;2023-08-06T00:34:42;0.50;;;0.50;;
57345;SDS011;43181;50.974;18.244;2023-08-06T00:37:08;0.70;;;0.40;;
57345;SDS011;43181;50.974;18.244;2023-08-06T00:39:34;0.50;;;0.40;;
57345;SDS011;43181;50.974;18.244;2023-08-06T00:41:59;3.60;;;1.20;;
57345;SDS011;43181;50.974;18.244;2023-08-06T00:44:25;0.60;;;0.60;;
57345;SDS011;43181;50.974;18.244;2023-08-06T00:46:51;3.00;;;1.30;;
57345;SDS011;43181;50.974;18.244;2023-08-06T00:49:17;3.10;;;1.40;;
57345;SDS011;43181;50.974;18.244;2023-08-06T00:51:42;1.00;;;0.90;;
57345;SDS011;43181;50.974;18.244;2023-08-06T00:54:09;1.30;;;1.10;;
57345;SDS011;43181;50.974;18.244;2023-08-06T00:56:37;1.80;;;1.40;;
57345;SDS011;43181;50.974;18.244;2023-08-06T00:59:03;1.80;;;1.00;;
57345;SDS011;43181;50.974;18.244;2023-08-06T01:01:30;1.60;;;0.70;;
57345;SDS011;43181;50.974;18.244;2023-08-06T01:03:56;1.50;;;0.90;;
57345;SDS011;43181;50.974;18.244;2023-08-06T01:06:31;1.90;;;1.30;;
57345;SDS011;43181;50.974;18.244;2023-08-06T01:09:15;0.60;;;0.60;;
57345;SDS011;43181;50.974;18.244;2023-08-06T01:15:07;1.80;;;1.60;;
57345;SDS011;43181;50.974;18.244;2023-08-06T01:17:37;1.00;;;1.00;;
57345;SDS011;43181;50.974;18.244;2023-08-06T01:20:04;2.40;;;1.60;;
57345;SDS011;43181;50.974;18.244;2023-08-06T01:22:30;0.90;;;0.90;;
57345;SDS011;43181;50.974;18.244;2023-08-06T01:24:55;0.80;;;0.80;;
57345;SDS011;43181;50.974;18.244;2023-08-06T01:27:33;0.70;;;0.70;;
57345;SDS011;43181;50.974;18.244;2023-08-06T01:30:22;0.90;;;0.70;;
57345;SDS011;43181;50.974;18.244;2023-08-06T01:32:53;1.00;;;0.90;;
57345;SDS011;43181;50.974;18.244;2023-08-06T01:35:20;2.20;;;1.80;;
57345;SDS011;43181;50.974;18.244;2023-08-06T01:37:47;2.20;;;1.50;;
57345;SDS011;43181;50.974;18.244;2023-08-06T01:40:13;3.40;;;0.80;;
57345;SDS011;43181;50.974;18.244;2023-08-06T01:42:39;1.70;;;0.80;;
57345;SDS011;43181;50.974;18.244;2023-08-06T01:45:06;1.30;;;1.20;;
57345;SDS011;43181;50.974;18.244;2023-08-06T01:47:32;2.30;;;1.60;;
57345;SDS011;43181;50.974;18.244;2023-08-06T01:49:58;3.00;;;1.90;;
57345;SDS011;43181;50.974;18.244;2023-08-06T01:52:24;4.30;;;1.70;;
57345;SDS011;43181;50.974;18.244;2023-08-06T01:54:50;0.70;;;0.60;;
57345;SDS011;43181;50.974;18.244;2023-08-06T01:57:16;2.90;;;2.60;;
57345;SDS011;43181;50.974;18.244;2023-08-06T01:59:42;3.70;;;1.60;;
57345;SDS011;43181;50.974;18.244;2023-08-06T02:02:07;1.80;;;1.50;;
57345;SDS011;43181;50.974;18.244;2023-08-06T02:04:33;1.20;;;1.10;;
57345;SDS011;43181;50.974;18.244;2023-08-06T02:06:59;1.50;;;1.10;;
57345;SDS011;43181;50.974;18.244;2023-08-06T02:09:25;0.70;;;0.70;;
57345;SDS011;43181;50.974;18.244;2023-08-06T02:11:51;0.60;;;0.60;;
57345;SDS011;43181;50.974;18.244;2023-08-06T02:14:17;1.50;;;1.20;;
57345;SDS011;43181;50.974;18.244;2023-08-06T02:16:43;1.10;;;1.00;;
57345;SDS011;43181;50.974;18.244;2023-08-06T02:19:09;1.90;;;1.10;;
57345;SDS011;43181;50.974;18.244;2023-08-06T02:21:34;4.40;;;1.90;;
57345;SDS011;43181;50.974;18.244;2023-08-06T02:24:00;1.20;;;0.80;;
57345;SDS011;43181;50.974;18.244;2023-08-06T02:26:26;0.50;;;0.40;;
57345;SDS011;43181;50.974;18.244;2023-08-06T02:28:52;2.60;;;1.60;;
57345;SDS011;43181;50.974;18.244;2023-08-06T02:31:17;0.30;;;0.20;;
57345;SDS011;43181;50.974;18.244;2023-08-06T02:33:43;0.60;;;0.60;;
57345;SDS011;43181;50.974;18.244;2023-08-06T02:36:09;1.80;;;0.70;;
57345;SDS011;43181;50.974;18.244;2023-08-06T02:38:34;1.00;;;0.80;;
57345;SDS011;43181;50.974;18.244;2023-08-06T02:41:04;1.30;;;1.00;;
57345;SDS011;43181;50.974;18.244;2023-08-06T02:43:30;0.40;;;0.40;;
57345;SDS011;43181;50.974;18.244;2023-08-06T02:45:57;1.90;;;1.50;;
57345;SDS011;43181;50.974;18.244;2023-08-06T02:48:23;0.80;;;0.80;;
57345;SDS011;43181;50.974;18.244;2023-08-06T02:50:49;1.30;;;1.20;;
57345;SDS011;43181;50.974;18.244;2023-08-06T02:53:15;0.80;;;0.60;;
57345;SDS011;43181;50.974;18.244;2023-08-06T02:55:45;2.20;;;0.80;;
57345;SDS011;43181;50.974;18.244;2023-08-06T02:58:12;5.40;;;1.70;;
57345;SDS011;43181;50.974;18.244;2023-08-06T03:00:37;3.60;;;2.10;;
57345;SDS011;43181;50.974;18.244;2023-08-06T03:03:03;1.40;;;1.30;;
57345;SDS011;43181;50.974;18.244;2023-08-06T03:05:29;1.60;;;1.30;;
57345;SDS011;43181;50.974;18.244;2023-08-06T03:07:54;0.90;;;0.90;;
57345;SDS011;43181;50.974;18.244;2023-08-06T03:10:20;2.10;;;1.40;;
57345;SDS011;43181;50.974;18.244;2023-08-06T03:12:46;4.90;;;2.20;;
57345;SDS011;43181;50.974;18.244;2023-08-06T03:15:12;3.30;;;1.60;;
57345;SDS011;43181;50.974;18.244;2023-08-06T03:17:40;4.20;;;2.00;;
57345;SDS011;43181;50.974;18.244;2023-08-06T03:20:06;3.00;;;1.80;;
57345;SDS011;43181;50.974;18.244;2023-08-06T03:22:35;2.30;;;1.40;;
57345;SDS011;43181;50.974;18.244;2023-08-06T03:25:01;2.90;;;2.00;;
57345;SDS011;43181;50.974;18.244;2023-08-06T03:27:28;1.00;;;0.60;;
57345;SDS011;43181;50.974;18.244;2023-08-06T03:29:53;1.20;;;1.10;;
57345;SDS011;43181;50.974;18.244;2023-08-06T03:32:20;2.10;;;1.40;;
57345;SDS011;43181;50.974;18.244;2023-08-06T03:34:46;1.20;;;1.00;;
57345;SDS011;43181;50.974;18.244;2023-08-06T03:37:11;0.70;;;0.50;;
57345;SDS011;43181;50.974;18.244;2023-08-06T03:39:37;0.60;;;0.30;;
57345;SDS011;43181;50.974;18.244;2023-08-06T03:42:03;1.40;;;1.00;;
57345;SDS011;43181;50.974;18.244;2023-08-06T03:44:29;2.10;;;0.90;;
57345;SDS011;43181;50.974;18.244;2023-08-06T03:46:56;0.90;;;0.80;;
57345;SDS011;43181;50.974;18.244;2023-08-06T03:49:22;1.10;;;0.50;;
57345;SDS011;43181;50.974;18.244;2023-08-06T03:51:47;1.10;;;0.60;;
57345;SDS011;43181;50.974;18.244;2023-08-06T03:54:13;0.20;;;0.20;;
57345;SDS011;43181;50.974;18.244;2023-08-06T03:56:39;0.50;;;0.50;;
57345;SDS011;43181;50.974;18.244;2023-08-06T03:59:05;0.80;;;0.80;;
57345;SDS011;43181;50.974;18.244;2023-08-06T04:01:30;0.80;;;0.30;;
57345;SDS011;43181;50.974;18.244;2023-08-06T04:03:56;3.10;;;1.30;;
57345;SDS011;43181;50.974;18.244;2023-08-06T04:06:22;2.80;;;1.20;;
57345;SDS011;43181;50.974;18.244;2023-08-06T04:08:48;0.80;;;0.80;;
57345;SDS011;43181;50.974;18.244;2023-08-06T04:11:14;0.50;;;0.50;;
57345;SDS011;43181;50.974;18.244;2023-08-06T04:13:42;0.60;;;0.60;;
57345;SDS011;43181;50.974;18.244;2023-08-06T04:16:09;0.50;;;0.50;;
57345;SDS011;43181;50.974;18.244;2023-08-06T04:18:35;0.40;;;0.40;;
57345;SDS011;43181;50.974;18.244;2023-08-06T04:21:01;4.70;;;1.00;;
57345;SDS011;43181;50.974;18.244;2023-08-06T04:23:27;0.30;;;0.30;;
57345;SDS011;43181;50.974;18.244;2023-08-06T04:25:59;0.50;;;0.40;;
57345;SDS011;43181;50.974;18.244;2023-08-06T04:28:25;0.20;;;0.20;;
57345;SDS011;43181;50.974;18.244;2023-08-06T04:30:58;0.80;;;0.60;;
57345;SDS011;43181;50.974;18.244;2023-08-06T04:33:25;0.40;;;0.40;;
57345;SDS011;43181;50.974;18.244;2023-08-06T04:35:54;2.40;;;0.90;;
57345;SDS011;43181;50.974;18.244;2023-08-06T04:38:22;0.50;;;0.50;;
57345;SDS011;43181;50.974;18.244;2023-08-06T04:40:49;2.70;;;0.90;;
57345;SDS011;43181;50.974;18.244;2023-08-06T04:43:17;0.70;;;0.60;;
57345;SDS011;43181;50.974;18.244;2023-08-06T04:45:46;1.20;;;1.20;;
57345;SDS011;43181;50.974;18.244;2023-08-06T04:48:16;1.30;;;0.80;;
57345;SDS011;43181;50.974;18.244;2023-08-06T04:50:46;0.70;;;0.60;;
57345;SDS011;43181;50.974;18.244;2023-08-06T04:53:14;1.10;;;0.60;;
57345;SDS011;43181;50.974;18.244;2023-08-06T04:55:40;1.80;;;0.40;;
57345;SDS011;43181;50.974;18.244;2023-08-06T04:58:06;0.80;;;0.70;;
57345;SDS011;43181;50.974;18.244;2023-08-06T05:00:35;1.00;;;1.00;;
57345;SDS011;43181;50.974;18.244;2023-08-06T05:03:01;1.80;;;1.00;;
57345;SDS011;43181;50.974;18.244;2023-08-06T05:05:27;0.50;;;0.40;;
57345;SDS011;43181;50.974;18.244;2023-08-06T05:07:53;0.60;;;0.50;;
57345;SDS011;43181;50.974;18.244;2023-08-06T05:10:20;1.50;;;0.60;;
57345;SDS011;43181;50.974;18.244;2023-08-06T05:12:45;1.00;;;0.80;;
57345;SDS011;43181;50.974;18.244;2023-08-06T05:15:11;0.90;;;0.40;;
57345;SDS011;43181;50.974;18.244;2023-08-06T05:17:37;0.30;;;0.30;;
57345;SDS011;43181;50.974;18.244;2023-08-06T05:20:03;0.70;;;0.70;;
57345;SDS011;43181;50.974;18.244;2023-08-06T05:22:30;1.00;;;0.30;;
57345;SDS011;43181;50.974;18.244;2023-08-06T05:24:56;1.30;;;0.80;;
57345;SDS011;43181;50.974;18.244;2023-08-06T05:27:22;0.30;;;0.30;;
57345;SDS011;43181;50.974;18.244;2023-08-06T05:29:47;0.80;;;0.50;;
57345;SDS011;43181;50.974;18.244;2023-08-06T05:32:13;1.70;;;1.30;;
57345;SDS011;43181;50.974;18.244;2023-08-06T05:34:39;0.70;;;0.70;;
57345;SDS011;43181;50.974;18.244;2023-08-06T05:37:08;1.60;;;0.60;;
57345;SDS011;43181;50.974;18.244;2023-08-06T05:39:34;0.40;;;0.40;;
57345;SDS011;43181;50.974;18.244;2023-08-06T05:42:00;0.50;;;0.50;;
57345;SDS011;43181;50.974;18.244;2023-08-06T05:44:26;0.70;;;0.70;;
57345;SDS011;43181;50.974;18.244;2023-08-06T05:46:52;0.80;;;0.80;;
57345;SDS011;43181;50.974;18.244;2023-08-06T05:49:18;0.30;;;0.30;;
57345;SDS011;43181;50.974;18.244;2023-08-06T05:51:44;0.50;;;0.50;;
57345;SDS011;43181;50.974;18.244;2023-08-06T05:54:10;0.70;;;0.70;;
57345;SDS011;43181;50.974;18.244;2023-08-06T05:56:38;0.70;;;0.70;;
57345;SDS011;43181;50.974;18.244;2023-08-06T05:59:04;0.80;;;0.80;;
57345;SDS011;43181;50.974;18.244;2023-08-06T06:01:29;1.60;;;0.80;;
57345;SDS011;43181;50.974;18.244;2023-08-06T06:03:55;0.60;;;0.60;;
57345;SDS011;43181;50.974;18.244;2023-08-06T06:06:21;0.50;;;0.50;;
57345;SDS011;43181;50.974;18.244;2023-08-06T06:08:47;0.10;;;0.10;;
57345;SDS011;43181;50.974;18.244;2023-08-06T06:11:13;0.70;;;0.70;;
57345;SDS011;43181;50.974;18.244;2023-08-06T06:13:38;0.20;;;0.20;;
57345;SDS011;43181;50.974;18.244;2023-08-06T06:16:05;0.60;;;0.60;;
57345;SDS011;43181;50.974;18.244;2023-08-06T06:18:30;0.20;;;0.20;;
57345;SDS011;43181;50.974;18.244;2023-08-06T06:20:56;0.30;;;0.30;;
57345;SDS011;43181;50.974;18.244;2023-08-06T06:23:22;0.50;;;0.30;;
57345;SDS011;43181;50.974;18.244;2023-08-06T06:25:48;0.80;;;0.40;;
57345;SDS011;43181;50.974;18.244;2023-08-06T06:28:17;0.70;;;0.50;;
57345;SDS011;43181;50.974;18.244;2023-08-06T06:30:43;0.70;;;0.40;;
57345;SDS011;43181;50.974;18.244;2023-08-06T06:33:09;0.20;;;0.20;;
57345;SDS011;43181;50.974;18.244;2023-08-06T06:35:35;0.30;;;0.30;;
57345;SDS011;43181;50.974;18.244;2023-08-06T06:38:01;0.10;;;0.10;;
57345;SDS011;43181;50.974;18.244;2023-08-06T06:40:27;0.20;;;0.20;;
57345;SDS011;43181;50.974;18.244;2023-08-06T06:42:53;0.50;;;0.50;;
57345;SDS011;43181;50.974;18.244;2023-08-06T06:45:19;1.20;;;0.40;;
57345;SDS011;43181;50.974;18.244;2023-08-06T06:47:45;1.20;;;0.20;;
57345;SDS011;43181;50.974;18.244;2023-08-06T06:50:11;0.10;;;0.10;;
57345;SDS011;43181;50.974;18.244;2023-08-06T06:52:37;0.10;;;0.10;;
57345;SDS011;43181;50.974;18.244;2023-08-06T06:55:03;0.10;;;0.10;;
57345;SDS011;43181;50.974;18.244;2023-08-06T06:57:29;0.90;;;0.30;;
57345;SDS011;43181;50.974;18.244;2023-08-06T06:59:55;0.10;;;0.10;;
57345;SDS011;43181;50.974;18.244;2023-08-06T07:02:21;0.10;;;0.10;;
57345;SDS011;43181;50.974;18.244;2023-08-06T07:04:47;0.20;;;0.20;;
57345;SDS011;43181;50.974;18.244;2023-08-06T07:07:12;0.20;;;0.10;;
57345;SDS011;43181;50.974;18.244;2023-08-06T07:09:39;0.20;;;0.20;;
57345;SDS011;43181;50.974;18.244;2023-08-06T07:12:05;0.10;;;0.10;;
57345;SDS011;43181;50.974;18.244;2023-08-06T07:14:31;0.10;;;0.10;;
57345;SDS011;43181;50.974;18.244;2023-08-06T07:16:57;0.10;;;0.10;;
57345;SDS011;43181;50.974;18.244;2023-08-06T07:19:23;0.10;;;0.10;;
57345;SDS011;43181;50.974;18.244;2023-08-06T07:21:49;0.10;;;0.10;;
57345;SDS011;43181;50.974;18.244;2023-08-06T07:24:15;0.10;;;0.10;;
57345;SDS011;43181;50.974;18.244;2023-08-06T07:26:40;0.10;;;0.10;;
57345;SDS011;43181;50.974;18.244;2023-08-06T07:29:07;0.10;;;0.10;;
57345;SDS011;43181;50.974;18.244;2023-08-06T07:31:33;0.10;;;0.10;;
57345;SDS011;43181;50.974;18.244;2023-08-06T07:33:59;0.10;;;0.10;;
57345;SDS011;43181;50.974;18.244;2023-08-06T07:36:25;0.10;;;0.10;;
57345;SDS011;43181;50.974;18.244;2023-08-06T07:38:51;0.10;;;0.10;;
57345;SDS011;43181;50.974;18.244;2023-08-06T07:41:21;0.10;;;0.10;;
57345;SDS011;43181;50.974;18.244;2023-08-06T07:43:48;0.10;;;0.10;;
57345;SDS011;43181;50.974;18.244;2023-08-06T07:46:15;0.10;;;0.10;;
57345;SDS011;43181;50.974;18.244;2023-08-06T07:48:41;0.10;;;0.10;;
57345;SDS011;43181;50.974;18.244;2023-08-06T07:51:07;0.10;;;0.10;;
57345;SDS011;43181;50.974;18.244;2023-08-06T07:53:33;0.10;;;0.10;;
57345;SDS011;43181;50.974;18.244;2023-08-06T07:55:59;0.10;;;0.10;;
57345;SDS011;43181;50.974;18.244;2023-08-06T07:58:28;0.10;;;0.10;;
57345;SDS011;43181;50.974;18.244;2023-08-06T08:00:55;0.10;;;0.10;;
57345;SDS011;43181;50.974;18.244;2023-08-06T08:03:21;0.00;;;0.00;;
57345;SDS011;43181;50.974;18.244;2023-08-06T08:05:47;0.10;;;0.10;;
57345;SDS011;43181;50.974;18.244;2023-08-06T08:08:13;0.10;;;0.10;;
57345;SDS011;43181;50.974;18.244;2023-08-06T08:10:38;0.10;;;0.10;;
57345;SDS011;43181;50.974;18.244;2023-08-06T08:13:05;0.20;;;0.20;;
57345;SDS011;43181;50.974;18.244;2023-08-06T08:15:31;0.10;;;0.10;;
57345;SDS011;43181;50.974;18.244;2023-08-06T08:17:58;0.10;;;0.10;;
57345;SDS011;43181;50.974;18.244;2023-08-06T08:20:24;0.10;;;0.10;;
57345;SDS011;43181;50.974;18.244;2023-08-06T08:22:52;0.10;;;0.10;;
57345;SDS011;43181;50.974;18.244;2023-08-06T08:25:18;0.20;;;0.20;;
57345;SDS011;43181;50.974;18.244;2023-08-06T08:27:44;0.50;;;0.30;;
57345;SDS011;43181;50.974;18.244;2023-08-06T08:30:10;0.10;;;0.10;;
57345;SDS011;43181;50.974;18.244;2023-08-06T08:32:35;0.10;;;0.10;;
57345;SDS011;43181;50.974;18.244;2023-08-06T08:35:01;0.10;;;0.10;;
57345;SDS011;43181;50.974;18.244;2023-08-06T08:37:27;0.20;;;0.20;;
57345;SDS011;43181;50.974;18.244;2023-08-06T08:39:53;0.20;;;0.20;;
57345;SDS011;43181;50.974;18.244;2023-08-06T08:42:19;0.10;;;0.10;;
57345;SDS011;43181;50.974;18.244;2023-08-06T08:44:44;0.10;;;0.10;;
57345;SDS011;43181;50.974;18.244;2023-08-06T08:47:10;0.30;;;0.30;;
57345;SDS011;43181;50.974;18.244;2023-08-06T08:49:36;0.10;;;0.10;;
57345;SDS011;43181;50.974;18.244;2023-08-06T08:52:03;0.10;;;0.10;;
57345;SDS011;43181;50.974;18.244;2023-08-06T08:54:36;0.10;;;0.10;;
57345;SDS011;43181;50.974;18.244;2023-08-06T08:57:04;0.10;;;0.10;;
57345;SDS011;43181;50.974;18.244;2023-08-06T08:59:30;0.20;;;0.20;;
57345;SDS011;43181;50.974;18.244;2023-08-06T09:01:57;0.10;;;0.10;;
57345;SDS011;43181;50.974;18.244;2023-08-06T09:04:26;0.40;;;0.30;;
57345;SDS011;43181;50.974;18.244;2023-08-06T09:06:54;0.30;;;0.30;;
57345;SDS011;43181;50.974;18.244;2023-08-06T09:09:31;0.30;;;0.30;;
57345;SDS011;43181;50.974;18.244;2023-08-06T09:12:01;1.40;;;0.40;;
57345;SDS011;43181;50.974;18.244;2023-08-06T09:14:28;0.40;;;0.40;;
57345;SDS011;43181;50.974;18.244;2023-08-06T09:16:54;0.30;;;0.30;;
57345;SDS011;43181;50.974;18.244;2023-08-06T09:19:20;2.40;;;1.40;;
57345;SDS011;43181;50.974;18.244;2023-08-06T09:21:45;1.40;;;1.20;;
57345;SDS011;43181;50.974;18.244;2023-08-06T09:24:15;0.40;;;0.40;;
57345;SDS011;43181;50.974;18.244;2023-08-06T09:26:42;0.40;;;0.40;;
57345;SDS011;43181;50.974;18.244;2023-08-06T09:29:10;0.50;;;0.30;;
57345;SDS011;43181;50.974;18.244;2023-08-06T09:36:50;0.10;;;0.10;;
57345;SDS011;43181;50.974;18.244;2023-08-06T09:39:17;0.10;;;0.10;;
57345;SDS011;43181;50.974;18.244;2023-08-06T09:41:43;0.10;;;0.10;;
57345;SDS011;43181;50.974;18.244;2023-08-06T09:44:19;0.20;;;0.10;;
57345;SDS011;43181;50.974;18.244;2023-08-06T09:46:50;0.20;;;0.20;;
57345;SDS011;43181;50.974;18.244;2023-08-06T09:49:20;0.10;;;0.10;;
57345;SDS011;43181;50.974;18.244;2023-08-06T09:51:50;0.10;;;0.10;;
57345;SDS011;43181;50.974;18.244;2023-08-06T09:54:17;0.20;;;0.20;;
57345;SDS011;43181;50.974;18.244;2023-08-06T09:56:46;0.10;;;0.10;;
57345;SDS011;43181;50.974;18.244;2023-08-06T09:59:11;0.10;;;0.10;;
57345;SDS011;43181;50.974;18.244;2023-08-06T10:01:37;0.20;;;0.20;;
57345;SDS011;43181;50.974;18.244;2023-08-06T10:04:04;0.20;;;0.20;;
57345;SDS011;43181;50.974;18.244;2023-08-06T10:06:33;0.10;;;0.10;;
57345;SDS011;43181;50.974;18.244;2023-08-06T10:09:02;0.10;;;0.10;;
57345;SDS011;43181;50.974;18.244;2023-08-06T10:11:31;0.10;;;0.10;;
57345;SDS011;43181;50.974;18.244;2023-08-06T10:16:57;0.10;;;0.10;;
57345;SDS011;43181;50.974;18.244;2023-08-06T10:19:23;0.10;;;0.10;;
57345;SDS011;43181;50.974;18.244;2023-08-06T10:27:39;0.10;;;0.10;;
57345;SDS011;43181;50.974;18.244;2023-08-06T10:33:02;0.90;;;0.10;;
57345;SDS011;43181;50.974;18.244;2023-08-06T10:38:11;0.10;;;0.10;;
57345;SDS011;43181;50.974;18.244;2023-08-06T10:40:40;0.10;;;0.10;;
57345;SDS011;43181;50.974;18.244;2023-08-06T10:43:08;0.10;;;0.10;;
57345;SDS011;43181;50.974;18.244;2023-08-06T10:45:56;0.10;;;0.10;;
57345;SDS011;43181;50.974;18.244;2023-08-06T10:50:56;0.10;;;0.10;;
57345;SDS011;43181;50.974;18.244;2023-08-06T10:53:22;0.10;;;0.10;;
57345;SDS011;43181;50.974;18.244;2023-08-06T10:55:48;0.10;;;0.10;;
57345;SDS011;43181;50.974;18.244;2023-08-06T10:58:17;0.10;;;0.10;;
57345;SDS011;43181;50.974;18.244;2023-08-06T11:00:42;0.30;;;0.30;;
57345;SDS011;43181;50.974;18.244;2023-08-06T11:03:08;0.30;;;0.30;;
57345;SDS011;43181;50.974;18.244;2023-08-06T11:05:35;0.50;;;0.50;;
57345;SDS011;43181;50.974;18.244;2023-08-06T11:08:01;0.70;;;0.70;;
57345;SDS011;43181;50.974;18.244;2023-08-06T11:10:27;0.30;;;0.30;;
57345;SDS011;43181;50.974;18.244;2023-08-06T11:12:53;0.40;;;0.40;;
57345;SDS011;43181;50.974;18.244;2023-08-06T11:15:20;0.50;;;0.20;;
57345;SDS011;43181;50.974;18.244;2023-08-06T11:17:46;0.20;;;0.20;;
57345;SDS011;43181;50.974;18.244;2023-08-06T11:20:11;0.10;;;0.10;;
57345;SDS011;43181;50.974;18.244;2023-08-06T11:22:37;0.20;;;0.20;;
57345;SDS011;43181;50.974;18.244;2023-08-06T11:25:05;0.30;;;0.30;;
57345;SDS011;43181;50.974;18.244;2023-08-06T11:27:31;0.80;;;0.50;;
57345;SDS011;43181;50.974;18.244;2023-08-06T11:29:57;0.30;;;0.30;;
57345;SDS011;43181;50.974;18.244;2023-08-06T11:32:23;2.30;;;1.10;;
57345;SDS011;43181;50.974;18.244;2023-08-06T11:34:50;2.30;;;1.10;;
57345;SDS011;43181;50.974;18.244;2023-08-06T11:37:16;1.00;;;1.00;;
57345;SDS011;43181;50.974;18.244;2023-08-06T11:39:51;0.10;;;0.10;;
57345;SDS011;43181;50.974;18.244;2023-08-06T11:42:18;0.20;;;0.20;;
57345;SDS011;43181;50.974;18.244;2023-08-06T11:44:44;0.40;;;0.40;;
57345;SDS011;43181;50.974;18.244;2023-08-06T11:47:14;0.10;;;0.10;;
57345;SDS011;43181;50.974;18.244;2023-08-06T11:54:39;1.50;;;0.30;;
57345;SDS011;43181;50.974;18.244;2023-08-06T11:57:05;0.70;;;0.20;;
57345;SDS011;43181;50.974;18.244;2023-08-06T11:59:31;0.80;;;0.20;;
57345;SDS011;43181;50.974;18.244;2023-08-06T12:01:57;0.30;;;0.30;;
57345;SDS011;43181;50.974;18.244;2023-08-06T12:04:22;0.50;;;0.30;;
57345;SDS011;43181;50.974;18.244;2023-08-06T12:06:48;0.20;;;0.20;;
57345;SDS011;43181;50.974;18.244;2023-08-06T12:09:14;0.20;;;0.20;;
57345;SDS011;43181;50.974;18.244;2023-08-06T12:11:40;0.30;;;0.30;;
57345;SDS011;43181;50.974;18.244;2023-08-06T12:14:05;0.20;;;0.20;;
57345;SDS011;43181;50.974;18.244;2023-08-06T12:16:31;0.70;;;0.70;;
57345;SDS011;43181;50.974;18.244;2023-08-06T12:18:56;1.30;;;1.00;;
57345;SDS011;43181;50.974;18.244;2023-08-06T12:21:22;0.20;;;0.20;;
57345;SDS011;43181;50.974;18.244;2023-08-06T12:23:48;0.50;;;0.50;;
57345;SDS011;43181;50.974;18.244;2023-08-06T12:26:14;1.80;;;0.60;;
57345;SDS011;43181;50.974;18.244;2023-08-06T12:28:40;0.30;;;0.30;;
57345;SDS011;43181;50.974;18.244;2023-08-06T12:31:05;2.70;;;1.20;;
57345;SDS011;43181;50.974;18.244;2023-08-06T12:33:31;0.80;;;0.60;;
57345;SDS011;43181;50.974;18.244;2023-08-06T12:35:56;0.60;;;0.30;;
57345;SDS011;43181;50.974;18.244;2023-08-06T12:38:23;0.30;;;0.30;;
57345;SDS011;43181;50.974;18.244;2023-08-06T12:40:49;0.40;;;0.40;;
57345;SDS011;43181;50.974;18.244;2023-08-06T12:43:15;0.40;;;0.40;;
57345;SDS011;43181;50.974;18.244;2023-08-06T12:45:41;0.30;;;0.30;;
57345;SDS011;43181;50.974;18.244;2023-08-06T12:48:06;0.20;;;0.20;;
57345;SDS011;43181;50.974;18.244;2023-08-06T12:50:32;0.30;;;0.30;;
57345;SDS011;43181;50.974;18.244;2023-08-06T12:53:00;0.90;;;0.90;;
57345;SDS011;43181;50.974;18.244;2023-08-06T12:55:26;0.50;;;0.40;;
57345;SDS011;43181;50.974;18.244;2023-08-06T12:57:52;0.80;;;0.80;;
57345;SDS011;43181;50.974;18.244;2023-08-06T13:00:18;1.40;;;0.40;;
57345;SDS011;43181;50.974;18.244;2023-08-06T13:02:44;0.40;;;0.40;;
57345;SDS011;43181;50.974;18.244;2023-08-06T13:05:09;0.20;;;0.20;;
57345;SDS011;43181;50.974;18.244;2023-08-06T13:07:35;0.30;;;0.30;;
57345;SDS011;43181;50.974;18.244;2023-08-06T13:10:00;0.20;;;0.20;;
57345;SDS011;43181;50.974;18.244;2023-08-06T13:12:27;2.20;;;1.10;;
57345;SDS011;43181;50.974;18.244;2023-08-06T13:14:53;0.20;;;0.20;;
57345;SDS011;43181;50.974;18.244;2023-08-06T13:17:22;1.00;;;0.60;;
57345;SDS011;43181;50.974;18.244;2023-08-06T13:19:48;3.90;;;0.90;;
57345;SDS011;43181;50.974;18.244;2023-08-06T13:22:17;0.70;;;0.30;;
57345;SDS011;43181;50.974;18.244;2023-08-06T13:24:42;0.20;;;0.20;;
57345;SDS011;43181;50.974;18.244;2023-08-06T13:27:08;0.10;;;0.10;;
57345;SDS011;43181;50.974;18.244;2023-08-06T13:29:35;0.20;;;0.20;;
57345;SDS011;43181;50.974;18.244;2023-08-06T13:32:00;0.10;;;0.10;;
57345;SDS011;43181;50.974;18.244;2023-08-06T13:34:27;0.10;;;0.10;;
57345;SDS011;43181;50.974;18.244;2023-08-06T13:36:53;0.30;;;0.30;;
57345;SDS011;43181;50.974;18.244;2023-08-06T13:39:18;0.20;;;0.20;;
57345;SDS011;43181;50.974;18.244;2023-08-06T13:41:45;0.20;;;0.20;;
57345;SDS011;43181;50.974;18.244;2023-08-06T13:44:10;0.10;;;0.10;;
57345;SDS011;43181;50.974;18.244;2023-08-06T13:46:36;0.10;;;0.10;;
57345;SDS011;43181;50.974;18.244;2023-08-06T13:49:02;0.30;;;0.30;;
57345;SDS011;43181;50.974;18.244;2023-08-06T13:51:27;0.10;;;0.10;;
57345;SDS011;43181;50.974;18.244;2023-08-06T13:53:54;0.20;;;0.20;;
57345;SDS011;43181;50.974;18.244;2023-08-06T13:56:19;0.30;;;0.30;;
57345;SDS011;43181;50.974;18.244;2023-08-06T13:58:45;0.10;;;0.10;;
57345;SDS011;43181;50.974;18.244;2023-08-06T14:01:10;0.10;;;0.10;;
57345;SDS011;43181;50.974;18.244;2023-08-06T14:03:36;0.10;;;0.10;;
57345;SDS011;43181;50.974;18.244;2023-08-06T14:06:02;0.30;;;0.30;;
57345;SDS011;43181;50.974;18.244;2023-08-06T14:08:28;0.20;;;0.20;;
57345;SDS011;43181;50.974;18.244;2023-08-06T14:10:54;0.10;;;0.10;;
57345;SDS011;43181;50.974;18.244;2023-08-06T14:13:20;0.20;;;0.20;;
57345;SDS011;43181;50.974;18.244;2023-08-06T14:15:49;0.20;;;0.20;;
57345;SDS011;43181;50.974;18.244;2023-08-06T14:18:15;0.50;;;0.40;;
57345;SDS011;43181;50.974;18.244;2023-08-06T14:20:41;0.10;;;0.10;;
57345;SDS011;43181;50.974;18.244;2023-08-06T14:23:07;0.10;;;0.10;;
57345;SDS011;43181;50.974;18.244;2023-08-06T14:25:33;0.10;;;0.10;;
57345;SDS011;43181;50.974;18.244;2023-08-06T14:27:58;0.30;;;0.30;;
57345;SDS011;43181;50.974;18.244;2023-08-06T14:30:24;0.10;;;0.10;;
57345;SDS011;43181;50.974;18.244;2023-08-06T14:32:50;0.10;;;0.10;;
57345;SDS011;43181;50.974;18.244;2023-08-06T14:35:15;0.40;;;0.20;;
57345;SDS011;43181;50.974;18.244;2023-08-06T14:37:41;0.10;;;0.10;;
57345;SDS011;43181;50.974;18.244;2023-08-06T14:40:07;0.10;;;0.10;;
57345;SDS011;43181;50.974;18.244;2023-08-06T14:42:34;0.20;;;0.20;;
57345;SDS011;43181;50.974;18.244;2023-08-06T14:44:59;0.10;;;0.10;;
57345;SDS011;43181;50.974;18.244;2023-08-06T14:47:27;0.20;;;0.20;;
57345;SDS011;43181;50.974;18.244;2023-08-06T14:49:53;0.10;;;0.10;;
57345;SDS011;43181;50.974;18.244;2023-08-06T14:52:18;0.20;;;0.20;;
57345;SDS011;43181;50.974;18.244;2023-08-06T14:54:44;0.20;;;0.20;;
57345;SDS011;43181;50.974;18.244;2023-08-06T14:57:10;0.30;;;0.30;;
57345;SDS011;43181;50.974;18.244;2023-08-06T14:59:35;0.10;;;0.10;;